Terminal Aerodrome Forecast
Issued by NWS

Home | Current Version | Previous Version | Text Only | Print | Product List | Glossary On
Versions: 1 2 3 4 5 6 7 8 9 10 11 12 13 14 15 16 17 18 19 20
000
FTUS45 KABQ 100613 AAA
TAFROW
TAF AMD
KROW 100613Z 1006/1106 VRB05KT P6SM BKN220
      TEMPO 1010/1014 FEW005 BKN015
     FM102000 20008KT P6SM SKC=

USA.gov is the U.S. government's official web portal to all federal, state and local government web resources and services.